SABE/AEP METAR and TAF weather

Enter ICAO airport designator
Station Type Date Time Source
SABE METAR 2019/02/17 16:00 UTC NOAA

SABE 171600Z 03005KT CAVOK 27/22 Q1014 BECMG 05010KT


Station Type Date Time Source
SABE Decoded METAR 2019/02/17 16:00 UTC NOAA

Aeroparque Bs. As. Aerodrome, Argentina (SABE) 34-34S 058-25W 6M
Feb 17, 2019 - 11:00 AM EST / 2019.02.17 1600 UTC
Wind: from the NNE (030 degrees) at 6 MPH (5 KT):0
Visibility: greater than 7 mile(s):0
Temperature: 80 F (27 C)
Dew Point: 71 F (22 C)
Relative Humidity: 74%
Pressure (altimeter): 29.94 in. Hg (1014 hPa)
ob: SABE 171600Z 03005KT CAVOK 27/22 Q1014 BECMG 05010KT
cycle: 16

Station Type Date Time Source
SABE TAF 2019/02/17 12:09 UTC NOAA

TAF SABE 171100Z 1712/1812 02010KT CAVOK TX29/1719Z TN22/1810Z
BECMG 1713/1715 05010KT
BECMG 1717/1718 11010KT
BECMG 1801/1803 02010KT


Example: see airport list